Bağlar, Turkey

3:09 AM EEST on July 31, 2016 (GMT +0300)
Diyarbakir | | Change Station

Elev 2221 ft 37.88 °N, 40.18 °E | Updated 19 minutes ago

Clear
Clear
77 °F
Feels Like 77 °F
N
4
Wind Variable Wind from SSE

Today
High -- | Low -- °F
--% Chance of Precip.
Yesterday
High -- | Low -- °F
Precip. -- in
Pressure 29.65 in
Visibility -9999.0 miles
Clouds
Dew Point 45 °F
Humidity 32%
Rainfall 0.00 in
Snow Depth Not available.
5:21 AM 7:28 PM
Waning Crescent, 10% visible
METAR LTCC 302350Z 16003KT 130V270 CAVOK 25/07 Q1004 NOSIG RMK RWY16 32009KT
Pressure 29.65 in
Visibility -9999.0 miles
Clouds
Dew Point 45 °F
Humidity 32%
Rainfall 0.00 in
Snow Depth Not available.
5:21 AM 7:28 PM
Waning Crescent, 10% visible
METAR LTCC 302350Z 16003KT 130V270 CAVOK 25/07 Q1004 NOSIG RMK RWY16 32009KT

10-Day Weather Forecast

×

Almanac

Astronomy

Jul. 31, 2016 Rise Set
Actual Time
Civil Twilight
Nautical Twilight
Astronomical Twilight
Moon
Length of Visible Light
Length of Day
Tomorrow will be .
, % of the Moon is Illuminated

Today's Extremes

Country Highs Country Lows

Community

WunderPhotos

Upload Photos

1,928,682 photos uploaded!

WunderBlog® & News

Nearby

Air Quality

  Air Quality AQ Index Pollutant
Not available.

Snow Depth

Station Depth Elevation

Earthquake Activity

City Distance Mag. Time & Date
Minimum magnitude displayed is 2.5.

Coastal Water Temperatures

Place Temperature

Stations

Nearby Weather Stations

Station Location Temp. Windchill Dew Point Humidity Wind Precip. Elev Updated Type